Thunder radar more information blitzortung!


Radar de pluja more information rain snow radar


Visita la nostra xarxa de llocs de meteo:

Template documentation
and downloads

And another site



No particular awareness of the weather is required.    There are no Weather-warnings

Pagina Historial Weather Underground text

Diari Resum Juny 16, 2017 Unitats:  Tant    Imperial   Mètric
« Previous Dia
SegĂźent Dia »
Diari Setmana Mensual Anual Personalitzada
  Maxima: Minima: Media:
Temperatura: 96.1 °F /  35.6 °C 73.2 °F /  22.9 °C 86.9 °F /  30.5 °C
Punt de rosada: 61.2 °F /  16.2 °C 47.5 °F /  8.6 °C 58.3 °F /  14.6 °C
Humitat: 64 % 28 % 40 %
Wind Speed: 11.5 mph /  18.5 km/h - 5 mph /  8 km/h
RĂ fegues de vent: 11.5 mph /  18.5 km/h - -
Vent:- - SSW
Pression baro: 30.1 in /  1017.8 hPa 30 in /  1015.8 hPa -
Precipitacions: 0 in /  0.0 mm    
Historical Graphs
 
 
Dades de taula per Juny 16, 2017
Temps Temperatura Punt de rosada Pression baro Vent Wind Speed RĂ fegues de vent Humitat Rainfall Rate (Hourly)
00:03 79 °F /  26.1 °C 47.5 °F /  8.6 °C 30 in /  1015.8 hPa WNW 2.3 mph /  3.7 km/h 2.3 mph /  3.7 km/h 33 % 0 in /  0.0 mm
04:15 82.2 °F /  27.9 °C 56.8 °F /  13.8 °C 30.1 in /  1017.8 hPa Calm   2 mph /  3.2 km/h 42 % 0 in /  0.0 mm
04:25 82.6 °F /  28.1 °C 57.2 °F /  14.0 °C 30.1 in /  1017.8 hPa NE 2 mph /  3.2 km/h 3 mph /  4.8 km/h 42 % 0 in /  0.0 mm
04:35 82.9 °F /  28.3 °C 56.8 °F /  13.8 °C 30.1 in /  1017.8 hPa NE 1 mph /  1.6 km/h 3 mph /  4.8 km/h 41 % 0 in /  0.0 mm
04:45 84 °F /  28.9 °C 57.7 °F /  14.3 °C 30.1 in /  1017.8 hPa NE 2 mph /  3.2 km/h 4 mph /  6.4 km/h 41 % 0 in /  0.0 mm
04:55 84.4 °F /  29.1 °C 57.4 °F /  14.1 °C 30.1 in /  1017.8 hPa NE 2 mph /  3.2 km/h 4 mph /  6.4 km/h 40 % 0 in /  0.0 mm
05:05 84.9 °F /  29.4 °C 57.9 °F /  14.4 °C 30.1 in /  1017.8 hPa ENE 2 mph /  3.2 km/h 4 mph /  6.4 km/h 40 % 0 in /  0.0 mm
10:15 85.1 °F /  29.5 °C 57.4 °F /  14.1 °C 30.1 in /  1017.8 hPa ENE 4.6 mph /  7.4 km/h 4.6 mph /  7.4 km/h 39 % 0 in /  0.0 mm
10:20 85.1 °F /  29.5 °C 56.7 °F /  13.7 °C 30.1 in /  1017.8 hPa ENE 4.6 mph /  7.4 km/h 4.7 mph /  7.6 km/h 38 % 0 in /  0.0 mm
10:25 85.3 °F /  29.6 °C 56.8 °F /  13.8 °C 30.1 in /  1017.8 hPa NNE 5.8 mph /  9.3 km/h 5.8 mph /  9.3 km/h 38 % 0 in /  0.0 mm
10:30 85.8 °F /  29.9 °C 57.4 °F /  14.1 °C 30.1 in /  1017.8 hPa ENE 4.7 mph /  7.6 km/h 4.7 mph /  7.6 km/h 38 % 0 in /  0.0 mm
10:35 86 °F /  30.0 °C 57.4 °F /  14.1 °C 30.1 in /  1017.8 hPa NNE 4.6 mph /  7.4 km/h 4.6 mph /  7.4 km/h 38 % 0 in /  0.0 mm
10:40 86.4 °F /  30.2 °C 57.7 °F /  14.3 °C 30.1 in /  1017.8 hPa NE 6.9 mph /  11.1 km/h 6.9 mph /  11.1 km/h 38 % 0 in /  0.0 mm
10:45 86.9 °F /  30.5 °C 58.3 °F /  14.6 °C 30.1 in /  1017.8 hPa East 3.1 mph /  5.0 km/h 3.1 mph /  5.0 km/h 38 % 0 in /  0.0 mm
10:50 87.1 °F /  30.6 °C 58.5 °F /  14.7 °C 30.1 in /  1017.8 hPa East 3.6 mph /  5.8 km/h   38 % 0 in /  0.0 mm
10:55 87.4 °F /  30.8 °C 57.9 °F /  14.4 °C 30.1 in /  1017.8 hPa SSW 3.5 mph /  5.6 km/h 3.5 mph /  5.6 km/h 37 % 0 in /  0.0 mm
11:00 88.2 °F /  31.2 °C 57.7 °F /  14.3 °C 30.1 in /  1017.8 hPa West 3.5 mph /  5.6 km/h 3.5 mph /  5.6 km/h 36 % 0 in /  0.0 mm
11:05 89.4 °F /  31.9 °C 59 °F /  15.0 °C 30.1 in /  1017.8 hPa ESE 5.4 mph /  8.7 km/h 5.4 mph /  8.7 km/h 36 % 0 in /  0.0 mm
11:10 88.9 °F /  31.6 °C 58.5 °F /  14.7 °C 30.1 in /  1017.8 hPa SW 2.9 mph /  4.7 km/h 2.9 mph /  4.7 km/h 36 % 0 in /  0.0 mm
11:15 89.2 °F /  31.8 °C 58.8 °F /  14.9 °C 30.1 in /  1017.8 hPa NW 3.5 mph /  5.6 km/h 3.5 mph /  5.6 km/h 36 % 0 in /  0.0 mm
11:20 88.7 °F /  31.5 °C 58.3 °F /  14.6 °C 30.1 in /  1017.8 hPa NE 4.6 mph /  7.4 km/h 4.6 mph /  7.4 km/h 36 % 0 in /  0.0 mm
11:25 90 °F /  32.2 °C 59.4 °F /  15.2 °C 30.1 in /  1017.8 hPa WNW 2.4 mph /  3.9 km/h 2.4 mph /  3.9 km/h 36 % 0 in /  0.0 mm
11:30 90.7 °F /  32.6 °C 59.4 °F /  15.2 °C 30.1 in /  1017.8 hPa SSW 3.5 mph /  5.6 km/h 3.5 mph /  5.6 km/h 35 % 0 in /  0.0 mm
11:35 90 °F /  32.2 °C 58.6 °F /  14.8 °C 30.1 in /  1017.8 hPa SW 5.8 mph /  9.3 km/h 5.8 mph /  9.3 km/h 35 % 0 in /  0.0 mm
11:40 90.5 °F /  32.5 °C 59.2 °F /  15.1 °C 30.1 in /  1017.8 hPa SSW 2.3 mph /  3.7 km/h 2.3 mph /  3.7 km/h 35 % 0 in /  0.0 mm
11:45 91 °F /  32.8 °C 58.8 °F /  14.9 °C 30.1 in /  1017.8 hPa West 3.5 mph /  5.6 km/h 3.5 mph /  5.6 km/h 34 % 0 in /  0.0 mm
11:50 92.1 °F /  33.4 °C 59.7 °F /  15.4 °C 30.1 in /  1017.8 hPa South 3.1 mph /  5.0 km/h 3.1 mph /  5.0 km/h 34 % 0 in /  0.0 mm
11:55 92.8 °F /  33.8 °C 59.5 °F /  15.3 °C 30.1 in /  1017.8 hPa ESE 3.5 mph /  5.6 km/h 3.5 mph /  5.6 km/h 33 % 0 in /  0.0 mm
12:00 91.4 °F /  33.0 °C 58.3 °F /  14.6 °C 30.1 in /  1017.8 hPa WSW 6.9 mph /  11.1 km/h 6.9 mph /  11.1 km/h 33 % 0 in /  0.0 mm
12:05 91.4 °F /  33.0 °C 58.3 °F /  14.6 °C 30.1 in /  1017.8 hPa ESE 4.6 mph /  7.4 km/h 4.6 mph /  7.4 km/h 33 % 0 in /  0.0 mm
12:10 90.9 °F /  32.7 °C 57.7 °F /  14.3 °C 30.1 in /  1017.8 hPa SW 3.8 mph /  6.1 km/h 3.8 mph /  6.1 km/h 33 % 0 in /  0.0 mm
12:15 91.9 °F /  33.3 °C 57.9 °F /  14.4 °C 30.1 in /  1017.8 hPa SSE 5.8 mph /  9.3 km/h 5.8 mph /  9.3 km/h 32 % 0 in /  0.0 mm
12:20 91.6 °F /  33.1 °C 57.6 °F /  14.2 °C 30.1 in /  1017.8 hPa NW 4.6 mph /  7.4 km/h 4.6 mph /  7.4 km/h 32 % 0 in /  0.0 mm
12:25 91.4 °F /  33.0 °C 57.4 °F /  14.1 °C 30.1 in /  1017.8 hPa ENE 4.6 mph /  7.4 km/h 4.6 mph /  7.4 km/h 32 % 0 in /  0.0 mm
12:30 91.9 °F /  33.3 °C 57.9 °F /  14.4 °C 30.1 in /  1017.8 hPa North 3.5 mph /  5.6 km/h 3.5 mph /  5.6 km/h 32 % 0 in /  0.0 mm
12:35 91.4 °F /  33.0 °C 59.2 °F /  15.1 °C 30.1 in /  1017.8 hPa South 4.6 mph /  7.4 km/h 4.6 mph /  7.4 km/h 34 % 0 in /  0.0 mm
12:40 91.6 °F /  33.1 °C 59.2 °F /  15.1 °C 30.1 in /  1017.8 hPa ESE 5.8 mph /  9.3 km/h 5.8 mph /  9.3 km/h 34 % 0 in /  0.0 mm
12:45 90.9 °F /  32.7 °C 59.4 °F /  15.2 °C 30 in /  1016.8 hPa ESE 8.5 mph /  13.7 km/h 8.5 mph /  13.7 km/h 35 % 0 in /  0.0 mm
12:50 89.8 °F /  32.1 °C 58.5 °F /  14.7 °C 30 in /  1016.8 hPa ENE 6.9 mph /  11.1 km/h 6.9 mph /  11.1 km/h 35 % 0 in /  0.0 mm
12:55 90.7 °F /  32.6 °C 60.1 °F /  15.6 °C 30 in /  1016.8 hPa NNE 6.2 mph /  10.0 km/h 6.2 mph /  10.0 km/h 36 % 0 in /  0.0 mm
13:00 91.9 °F /  33.3 °C 59.5 °F /  15.3 °C 30 in /  1016.8 hPa WSW 9.2 mph /  14.8 km/h 9.2 mph /  14.8 km/h 34 % 0 in /  0.0 mm
13:05 93.4 °F /  34.1 °C 59.2 °F /  15.1 °C 30 in /  1016.8 hPa South 3.5 mph /  5.6 km/h 3.5 mph /  5.6 km/h 32 % 0 in /  0.0 mm
13:10 93.9 °F /  34.4 °C 59.5 °F /  15.3 °C 30 in /  1016.8 hPa SSW 3.5 mph /  5.6 km/h 3.5 mph /  5.6 km/h 32 % 0 in /  0.0 mm
13:15 94.1 °F /  34.5 °C 59.7 °F /  15.4 °C 30 in /  1016.8 hPa SSW 5.8 mph /  9.3 km/h 5.8 mph /  9.3 km/h 32 % 0 in /  0.0 mm
13:20 94.8 °F /  34.9 °C 59.5 °F /  15.3 °C 30 in /  1016.8 hPa SW 8.1 mph /  13.0 km/h 8.1 mph /  13.0 km/h 31 % 0 in /  0.0 mm
13:25 94.6 °F /  34.8 °C 58.5 °F /  14.7 °C 30 in /  1016.8 hPa SSW 3.5 mph /  5.6 km/h 3.5 mph /  5.6 km/h 30 % 0 in /  0.0 mm
13:30 94.8 °F /  34.9 °C 58.6 °F /  14.8 °C 30 in /  1016.8 hPa SSW 5.8 mph /  9.3 km/h 5.8 mph /  9.3 km/h 30 % 0 in /  0.0 mm
13:35 96.1 °F /  35.6 °C 58.6 °F /  14.8 °C 30 in /  1016.8 hPa SE 2.3 mph /  3.7 km/h 2.3 mph /  3.7 km/h 29 % 0 in /  0.0 mm
13:40 94.6 °F /  34.8 °C 57.6 °F /  14.2 °C 30 in /  1016.8 hPa South 11.5 mph /  18.5 km/h 11.5 mph /  18.5 km/h 29 % 0 in /  0.0 mm
13:45 94.8 °F /  34.9 °C 58.6 °F /  14.8 °C 30 in /  1016.8 hPa SW 5.8 mph /  9.3 km/h 5.8 mph /  9.3 km/h 30 % 0 in /  0.0 mm
13:50 95.4 °F /  35.2 °C 58.1 °F /  14.5 °C 30 in /  1016.8 hPa WSW 5.9 mph /  9.5 km/h 5.9 mph /  9.5 km/h 29 % 0 in /  0.0 mm
13:55 94.5 °F /  34.7 °C 57.4 °F /  14.1 °C 30 in /  1016.8 hPa SSW 10.4 mph /  16.7 km/h 10.4 mph /  16.7 km/h 29 % 0 in /  0.0 mm
14:00 94.8 °F /  34.9 °C 57.6 °F /  14.2 °C 30 in /  1016.8 hPa SSE 5.8 mph /  9.3 km/h 5.8 mph /  9.3 km/h 29 % 0 in /  0.0 mm
14:05 95.7 °F /  35.4 °C 57.4 °F /  14.1 °C 30 in /  1016.8 hPa SW 5.8 mph /  9.3 km/h 5.8 mph /  9.3 km/h 28 % 0 in /  0.0 mm
14:10 95.2 °F /  35.1 °C 56.8 °F /  13.8 °C 30 in /  1016.8 hPa West 5.8 mph /  9.3 km/h 5.8 mph /  9.3 km/h 28 % 0 in /  0.0 mm
14:15 95 °F /  35.0 °C 56.8 °F /  13.8 °C 30 in /  1016.8 hPa SSW 8.1 mph /  13.0 km/h 8.1 mph /  13.0 km/h 28 % 0 in /  0.0 mm
14:20 94.6 °F /  34.8 °C 57.6 °F /  14.2 °C 30 in /  1016.8 hPa SW 9.2 mph /  14.8 km/h 9.2 mph /  14.8 km/h 29 % 0 in /  0.0 mm
14:25 93.6 °F /  34.2 °C 56.5 °F /  13.6 °C 30 in /  1016.8 hPa SW 9.2 mph /  14.8 km/h 9.2 mph /  14.8 km/h 29 % 0 in /  0.0 mm
14:30 94.5 °F /  34.7 °C 57.4 °F /  14.1 °C 30 in /  1016.8 hPa SW 6.9 mph /  11.1 km/h 6.9 mph /  11.1 km/h 29 % 0 in /  0.0 mm
14:35 94.1 °F /  34.5 °C 57 °F /  13.9 °C 30 in /  1016.8 hPa WSW 6.9 mph /  11.1 km/h 6.9 mph /  11.1 km/h 29 % 0 in /  0.0 mm
14:40 93.9 °F /  34.4 °C 56.8 °F /  13.8 °C 30 in /  1016.8 hPa SSW 10.7 mph /  17.2 km/h 10.7 mph /  17.2 km/h 29 % 0 in /  0.0 mm
14:45 94.3 °F /  34.6 °C 57 °F /  13.9 °C 30 in /  1016.8 hPa WSW 8.1 mph /  13.0 km/h 8.1 mph /  13.0 km/h 29 % 0 in /  0.0 mm
14:50 93.7 °F /  34.3 °C 56.7 °F /  13.7 °C 30 in /  1016.8 hPa SSW 2.9 mph /  4.7 km/h 2.9 mph /  4.7 km/h 29 % 0 in /  0.0 mm
14:55 93.9 °F /  34.4 °C 56.8 °F /  13.8 °C 30 in /  1016.8 hPa SW 8.1 mph /  13.0 km/h 8.1 mph /  13.0 km/h 29 % 0 in /  0.0 mm
15:00 94.3 °F /  34.6 °C 57 °F /  13.9 °C 30 in /  1015.8 hPa WSW 6.9 mph /  11.1 km/h 6.9 mph /  11.1 km/h 29 % 0 in /  0.0 mm
15:05 94.5 °F /  34.7 °C 57.4 °F /  14.1 °C 30 in /  1015.8 hPa SSW 6.9 mph /  11.1 km/h 6.9 mph /  11.1 km/h 29 % 0 in /  0.0 mm
15:10 94.3 °F /  34.6 °C 57 °F /  13.9 °C 30 in /  1015.8 hPa SW 9.2 mph /  14.8 km/h 9.2 mph /  14.8 km/h 29 % 0 in /  0.0 mm
15:15 93.7 °F /  34.3 °C 57.6 °F /  14.2 °C 30 in /  1016.8 hPa West 4.6 mph /  7.4 km/h 4.6 mph /  7.4 km/h 30 % 0 in /  0.0 mm
15:20 93.9 °F /  34.4 °C 56.8 °F /  13.8 °C 30 in /  1016.8 hPa SSW 9.8 mph /  15.8 km/h 9.8 mph /  15.8 km/h 29 % 0 in /  0.0 mm
15:25 93.7 °F /  34.3 °C 57.6 °F /  14.2 °C 30 in /  1016.8 hPa WSW 8.7 mph /  14.0 km/h 8.7 mph /  14.0 km/h 30 % 0 in /  0.0 mm
15:30 93.9 °F /  34.4 °C 57.7 °F /  14.3 °C 30 in /  1015.8 hPa SW 5.8 mph /  9.3 km/h 5.8 mph /  9.3 km/h 30 % 0 in /  0.0 mm
15:35 94.1 °F /  34.5 °C 57.9 °F /  14.4 °C 30 in /  1015.8 hPa WSW 9.2 mph /  14.8 km/h 9.2 mph /  14.8 km/h 30 % 0 in /  0.0 mm
15:37 93.9 °F /  34.4 °C 57.7 °F /  14.3 °C 30 in /  1015.8 hPa NNW 5.8 mph /  9.3 km/h 5.8 mph /  9.3 km/h 30 % 0 in /  0.0 mm
15:42 94.6 °F /  34.8 °C 58.5 °F /  14.7 °C 30 in /  1015.8 hPa SSW 5.9 mph /  9.5 km/h 5.9 mph /  9.5 km/h 30 % 0 in /  0.0 mm
15:47 94.1 °F /  34.5 °C 57.9 °F /  14.4 °C 30 in /  1015.8 hPa SW 10.4 mph /  16.7 km/h 10.4 mph /  16.7 km/h 30 % 0 in /  0.0 mm
15:52 93.7 °F /  34.3 °C 57.6 °F /  14.2 °C 30 in /  1015.8 hPa South 8.7 mph /  14.0 km/h 8.7 mph /  14.0 km/h 30 % 0 in /  0.0 mm
15:57 93.6 °F /  34.2 °C 57.6 °F /  14.2 °C 30 in /  1015.8 hPa South 6.9 mph /  11.1 km/h 6.9 mph /  11.1 km/h 30 % 0 in /  0.0 mm
15:59 93.9 °F /  34.4 °C 57.7 °F /  14.3 °C 30 in /  1015.8 hPa SSW 5.8 mph /  9.3 km/h 5.8 mph /  9.3 km/h 30 % 0 in /  0.0 mm
16:04 93.9 °F /  34.4 °C 57.7 °F /  14.3 °C 30 in /  1015.8 hPa SW 7.8 mph /  12.6 km/h 7.8 mph /  12.6 km/h 30 % 0 in /  0.0 mm
16:09 93.6 °F /  34.2 °C 57.6 °F /  14.2 °C 30 in /  1015.8 hPa WSW 5.8 mph /  9.3 km/h 5.8 mph /  9.3 km/h 30 % 0 in /  0.0 mm
16:14 93.9 °F /  34.4 °C 57.7 °F /  14.3 °C 30 in /  1015.8 hPa SW 6.9 mph /  11.1 km/h 6.9 mph /  11.1 km/h 30 % 0 in /  0.0 mm
16:19 94.3 °F /  34.6 °C 58.1 °F /  14.5 °C 30 in /  1015.8 hPa SSW 6.9 mph /  11.1 km/h 6.9 mph /  11.1 km/h 30 % 0 in /  0.0 mm
16:24 94.5 °F /  34.7 °C 58.3 °F /  14.6 °C 30 in /  1015.8 hPa SW 5.8 mph /  9.3 km/h 5.8 mph /  9.3 km/h 30 % 0 in /  0.0 mm
16:29 94.5 °F /  34.7 °C 58.3 °F /  14.6 °C 30 in /  1015.8 hPa SW 10.4 mph /  16.7 km/h 10.4 mph /  16.7 km/h 30 % 0 in /  0.0 mm
16:34 93.7 °F /  34.3 °C 57.6 °F /  14.2 °C 30 in /  1015.8 hPa SW 9.2 mph /  14.8 km/h 9.2 mph /  14.8 km/h 30 % 0 in /  0.0 mm
16:39 93.4 °F /  34.1 °C 57.4 °F /  14.1 °C 30 in /  1015.8 hPa SW 8.7 mph /  14.0 km/h 8.7 mph /  14.0 km/h 30 % 0 in /  0.0 mm
16:44 93.9 °F /  34.4 °C 57.7 °F /  14.3 °C 30 in /  1015.8 hPa ESE 6.9 mph /  11.1 km/h 6.9 mph /  11.1 km/h 30 % 0 in /  0.0 mm
16:49 93.4 °F /  34.1 °C 57.4 °F /  14.1 °C 30 in /  1015.8 hPa South 8.1 mph /  13.0 km/h 8.1 mph /  13.0 km/h 30 % 0 in /  0.0 mm
16:54 93.2 °F /  34.0 °C 57.2 °F /  14.0 °C 30 in /  1015.8 hPa South 6.4 mph /  10.3 km/h 6.4 mph /  10.3 km/h 30 % 0 in /  0.0 mm
16:59 93.2 °F /  34.0 °C 57.2 °F /  14.0 °C 30 in /  1015.8 hPa SSE 7.1 mph /  11.4 km/h 7.1 mph /  11.4 km/h 30 % 0 in /  0.0 mm
17:04 92.5 °F /  33.6 °C 56.5 °F /  13.6 °C 30 in /  1016.8 hPa SSW 10.4 mph /  16.7 km/h 10.4 mph /  16.7 km/h 30 % 0 in /  0.0 mm
17:09 92.8 °F /  33.8 °C 56.8 °F /  13.8 °C 30 in /  1016.8 hPa SSE 8.1 mph /  13.0 km/h 8.1 mph /  13.0 km/h 30 % 0 in /  0.0 mm
17:14 92.8 °F /  33.8 °C 57.7 °F /  14.3 °C 30 in /  1016.8 hPa SSW 9.2 mph /  14.8 km/h 9.2 mph /  14.8 km/h 31 % 0 in /  0.0 mm
17:19 92.8 °F /  33.8 °C 57.7 °F /  14.3 °C 30 in /  1015.8 hPa WSW 9.2 mph /  14.8 km/h 9.2 mph /  14.8 km/h 31 % 0 in /  0.0 mm
17:24 92.8 °F /  33.8 °C 57.7 °F /  14.3 °C 30 in /  1015.8 hPa SW 8.1 mph /  13.0 km/h 8.1 mph /  13.0 km/h 31 % 0 in /  0.0 mm
17:29 92.5 °F /  33.6 °C 57.4 °F /  14.1 °C 30 in /  1015.8 hPa SW 8.1 mph /  13.0 km/h 8.1 mph /  13.0 km/h 31 % 0 in /  0.0 mm
17:34 92.8 °F /  33.8 °C 57.7 °F /  14.3 °C 30 in /  1015.8 hPa SW 8.7 mph /  14.0 km/h 8.7 mph /  14.0 km/h 31 % 0 in /  0.0 mm
17:39 92.3 °F /  33.5 °C 58.3 °F /  14.6 °C 30 in /  1015.8 hPa SSE 6.9 mph /  11.1 km/h 6.9 mph /  11.1 km/h 32 % 0 in /  0.0 mm
17:44 92.3 °F /  33.5 °C 58.3 °F /  14.6 °C 30 in /  1015.8 hPa SW 9.2 mph /  14.8 km/h 9.2 mph /  14.8 km/h 32 % 0 in /  0.0 mm
17:49 92.5 °F /  33.6 °C 58.3 °F /  14.6 °C 30 in /  1015.8 hPa South 8.1 mph /  13.0 km/h 8.1 mph /  13.0 km/h 32 % 0 in /  0.0 mm
17:54 92.1 °F /  33.4 °C 57.9 °F /  14.4 °C 30 in /  1015.8 hPa SSW 8.1 mph /  13.0 km/h 8.1 mph /  13.0 km/h 32 % 0 in /  0.0 mm
17:59 91.2 °F /  32.9 °C 57.2 °F /  14.0 °C 30 in /  1015.8 hPa SW 10.5 mph /  16.9 km/h 10.5 mph /  16.9 km/h 32 % 0 in /  0.0 mm
18:04 91.4 °F /  33.0 °C 57.4 °F /  14.1 °C 30 in /  1015.8 hPa WSW 3.5 mph /  5.6 km/h 4 mph /  6.4 km/h 32 % 0 in /  0.0 mm
18:09 91.2 °F /  32.9 °C 58.1 °F /  14.5 °C 30 in /  1015.8 hPa SE 3.5 mph /  5.6 km/h 3.5 mph /  5.6 km/h 33 % 0 in /  0.0 mm
18:14 91 °F /  32.8 °C 57.9 °F /  14.4 °C 30 in /  1015.8 hPa SW 6.9 mph /  11.1 km/h 6.9 mph /  11.1 km/h 33 % 0 in /  0.0 mm
18:19 90.9 °F /  32.7 °C 57.7 °F /  14.3 °C 30 in /  1015.8 hPa SSW 3.5 mph /  5.6 km/h 3.5 mph /  5.6 km/h 33 % 0 in /  0.0 mm
18:24 91.2 °F /  32.9 °C 58.1 °F /  14.5 °C 30 in /  1015.8 hPa South 4.6 mph /  7.4 km/h 4.6 mph /  7.4 km/h 33 % 0 in /  0.0 mm
18:29 90.9 °F /  32.7 °C 57.7 °F /  14.3 °C 30 in /  1015.8 hPa WSW 5.8 mph /  9.3 km/h 5.8 mph /  9.3 km/h 33 % 0 in /  0.0 mm
18:34 90.5 °F /  32.5 °C 57.6 °F /  14.2 °C 30 in /  1015.8 hPa SW 5.8 mph /  9.3 km/h 5.8 mph /  9.3 km/h 33 % 0 in /  0.0 mm
18:35 90.5 °F /  32.5 °C 57.6 °F /  14.2 °C 30 in /  1015.8 hPa WSW 5.8 mph /  9.3 km/h 5.8 mph /  9.3 km/h 33 % 0 in /  0.0 mm
18:40 90.5 °F /  32.5 °C 58.3 °F /  14.6 °C 30 in /  1015.8 hPa SW 5.8 mph /  9.3 km/h 5.8 mph /  9.3 km/h 34 % 0 in /  0.0 mm
18:45 90.1 °F /  32.3 °C 57.9 °F /  14.4 °C 30 in /  1015.8 hPa SW 8.1 mph /  13.0 km/h 8.1 mph /  13.0 km/h 34 % 0 in /  0.0 mm
18:50 90 °F /  32.2 °C 57.7 °F /  14.3 °C 30 in /  1015.8 hPa SSE 6.9 mph /  11.1 km/h 6.9 mph /  11.1 km/h 34 % 0 in /  0.0 mm
18:55 89.4 °F /  31.9 °C 58.3 °F /  14.6 °C 30 in /  1015.8 hPa WSW 5.8 mph /  9.3 km/h 5.8 mph /  9.3 km/h 35 % 0 in /  0.0 mm
18:57 88.9 °F /  31.6 °C 57.7 °F /  14.3 °C 30 in /  1015.8 hPa South 8.1 mph /  13.0 km/h 8.1 mph /  13.0 km/h 35 % 0 in /  0.0 mm
19:02 88.9 °F /  31.6 °C 57.7 °F /  14.3 °C 30 in /  1015.8 hPa West 5.4 mph /  8.7 km/h 5.4 mph /  8.7 km/h 35 % 0 in /  0.0 mm
19:07 88.9 °F /  31.6 °C 57.7 °F /  14.3 °C 30 in /  1015.8 hPa SW 6.9 mph /  11.1 km/h 6.9 mph /  11.1 km/h 35 % 0 in /  0.0 mm
19:12 88.5 °F /  31.4 °C 57.4 °F /  14.1 °C 30 in /  1015.8 hPa SW 6.4 mph /  10.3 km/h 6.4 mph /  10.3 km/h 35 % 0 in /  0.0 mm
19:15 76.6 °F /  24.8 °C 60.3 °F /  15.7 °C 30.1 in /  1017.8 hPa SW 2 mph /  3.2 km/h 2 mph /  3.2 km/h 57 % 0 in /  0.0 mm
19:17 88.2 °F /  31.2 °C 57.7 °F /  14.3 °C 30 in /  1015.8 hPa SSW 9.2 mph /  14.8 km/h 9.2 mph /  14.8 km/h 36 % 0 in /  0.0 mm
19:22 88 °F /  31.1 °C 57.7 °F /  14.3 °C 30 in /  1015.8 hPa WSW 10.9 mph /  17.5 km/h 10.9 mph /  17.5 km/h 36 % 0 in /  0.0 mm
19:25 76.5 °F /  24.7 °C 60.1 °F /  15.6 °C 30.1 in /  1017.8 hPa SW 1 mph /  1.6 km/h 2 mph /  3.2 km/h 57 % 0 in /  0.0 mm
19:27 87.6 °F /  30.9 °C 58.1 °F /  14.5 °C 30 in /  1015.8 hPa WSW 8.1 mph /  13.0 km/h 8.1 mph /  13.0 km/h 37 % 0 in /  0.0 mm
19:32 87.1 °F /  30.6 °C 57.7 °F /  14.3 °C 30 in /  1015.8 hPa SSW 10.4 mph /  16.7 km/h 10.4 mph /  16.7 km/h 37 % 0 in /  0.0 mm
19:35 76.3 °F /  24.6 °C 60.4 °F /  15.8 °C 30.1 in /  1017.8 hPa WSW 1 mph /  1.6 km/h 2 mph /  3.2 km/h 58 % 0 in /  0.0 mm
19:37 86.9 °F /  30.5 °C 58.3 °F /  14.6 °C 30 in /  1015.8 hPa SW 6.9 mph /  11.1 km/h 6.9 mph /  11.1 km/h 38 % 0 in /  0.0 mm
19:42 86.9 °F /  30.5 °C 58.3 °F /  14.6 °C 30 in /  1015.8 hPa South 4.6 mph /  7.4 km/h 4.6 mph /  7.4 km/h 38 % 0 in /  0.0 mm
19:45 76.1 °F /  24.5 °C 60.3 °F /  15.7 °C 30.1 in /  1017.8 hPa SW 2 mph /  3.2 km/h 2 mph /  3.2 km/h 58 % 0 in /  0.0 mm
19:47 86.5 °F /  30.3 °C 57.9 °F /  14.4 °C 30 in /  1015.8 hPa SW 9.2 mph /  14.8 km/h 9.2 mph /  14.8 km/h 38 % 0 in /  0.0 mm
19:52 86.2 °F /  30.1 °C 57.6 °F /  14.2 °C 30 in /  1015.8 hPa South 5.8 mph /  9.3 km/h 5.8 mph /  9.3 km/h 38 % 0 in /  0.0 mm
19:57 86 °F /  30.0 °C 58.3 °F /  14.6 °C 30 in /  1015.8 hPa South 6.9 mph /  11.1 km/h 6.9 mph /  11.1 km/h 39 % 0 in /  0.0 mm
20:02 86 °F /  30.0 °C 58.3 °F /  14.6 °C 30 in /  1015.8 hPa SW 4 mph /  6.4 km/h 4 mph /  6.4 km/h 39 % 0 in /  0.0 mm
20:05 76.1 °F /  24.5 °C 60.3 °F /  15.7 °C 30.1 in /  1017.8 hPa WSW 1 mph /  1.6 km/h 2 mph /  3.2 km/h 58 % 0 in /  0.0 mm
20:07 85.8 °F /  29.9 °C 57.9 °F /  14.4 °C 30 in /  1015.8 hPa SSW 4.6 mph /  7.4 km/h 4.6 mph /  7.4 km/h 39 % 0 in /  0.0 mm
20:12 85.3 °F /  29.6 °C 57.6 °F /  14.2 °C 30 in /  1015.8 hPa SSW 5.8 mph /  9.3 km/h 5.8 mph /  9.3 km/h 39 % 0 in /  0.0 mm
20:15 76.1 °F /  24.5 °C 60.6 °F /  15.9 °C 30.1 in /  1017.8 hPa WSW 2 mph /  3.2 km/h 2 mph /  3.2 km/h 59 % 0 in /  0.0 mm
20:17 85.1 °F /  29.5 °C 57.4 °F /  14.1 °C 30 in /  1015.8 hPa SSW 4.6 mph /  7.4 km/h 4.6 mph /  7.4 km/h 39 % 0 in /  0.0 mm
20:22 84.9 °F /  29.4 °C 57.2 °F /  14.0 °C 30 in /  1015.8 hPa WSW 5.8 mph /  9.3 km/h 5.8 mph /  9.3 km/h 39 % 0 in /  0.0 mm
20:25 75.7 °F /  24.3 °C 60.4 °F /  15.8 °C 30.1 in /  1017.8 hPa WSW 1 mph /  1.6 km/h 4 mph /  6.4 km/h 59 % 0 in /  0.0 mm
20:27 84.6 °F /  29.2 °C 57.6 °F /  14.2 °C 30 in /  1015.8 hPa South 9.2 mph /  14.8 km/h 9.2 mph /  14.8 km/h 40 % 0 in /  0.0 mm
20:32 84 °F /  28.9 °C 57.7 °F /  14.3 °C 30 in /  1015.8 hPa West 3.5 mph /  5.6 km/h 4.7 mph /  7.6 km/h 41 % 0 in /  0.0 mm
20:35 75.6 °F /  24.2 °C 60.6 °F /  15.9 °C 30.1 in /  1017.8 hPa WSW 1 mph /  1.6 km/h 3 mph /  4.8 km/h 60 % 0 in /  0.0 mm
20:37 83.8 °F /  28.8 °C 57.6 °F /  14.2 °C 30 in /  1015.8 hPa SW 3.5 mph /  5.6 km/h 3.5 mph /  5.6 km/h 41 % 0 in /  0.0 mm
20:42 83.7 °F /  28.7 °C 57.6 °F /  14.2 °C 30 in /  1015.8 hPa SW 5.8 mph /  9.3 km/h 5.8 mph /  9.3 km/h 41 % 0 in /  0.0 mm
20:45 75.4 °F /  24.1 °C 60.4 °F /  15.8 °C 30.1 in /  1017.8 hPa WSW 1 mph /  1.6 km/h 4 mph /  6.4 km/h 60 % 0 in /  0.0 mm
20:47 83.3 °F /  28.5 °C 57.7 °F /  14.3 °C 30 in /  1015.8 hPa WSW 5.8 mph /  9.3 km/h 5.8 mph /  9.3 km/h 42 % 0 in /  0.0 mm
20:52 83.1 °F /  28.4 °C 57.6 °F /  14.2 °C 30 in /  1015.8 hPa SSW 4.6 mph /  7.4 km/h 4.6 mph /  7.4 km/h 42 % 0 in /  0.0 mm
20:55 75.4 °F /  24.1 °C 60.4 °F /  15.8 °C 30.1 in /  1017.8 hPa WSW 1 mph /  1.6 km/h 2 mph /  3.2 km/h 60 % 0 in /  0.0 mm
20:57 82.6 °F /  28.1 °C 57.7 °F /  14.3 °C 30 in /  1015.8 hPa SW 3.5 mph /  5.6 km/h 3.5 mph /  5.6 km/h 43 % 0 in /  0.0 mm
21:02 82.6 °F /  28.1 °C 57.7 °F /  14.3 °C 30 in /  1015.8 hPa SSW 6 mph /  9.7 km/h 6 mph /  9.7 km/h 43 % 0 in /  0.0 mm
21:05 75 °F /  23.9 °C 60.6 °F /  15.9 °C 30.1 in /  1017.8 hPa WSW 1 mph /  1.6 km/h 3 mph /  4.8 km/h 61 % 0 in /  0.0 mm
21:07 82.2 °F /  27.9 °C 58.1 °F /  14.5 °C 30 in /  1015.8 hPa SW 2.6 mph /  4.2 km/h 2.6 mph /  4.2 km/h 44 % 0 in /  0.0 mm
21:12 82 °F /  27.8 °C 57.9 °F /  14.4 °C 30 in /  1015.8 hPa SW 5.8 mph /  9.3 km/h 5.8 mph /  9.3 km/h 44 % 0 in /  0.0 mm
21:15 74.8 °F /  23.8 °C 61 °F /  16.1 °C 30.1 in /  1017.8 hPa WSW 1 mph /  1.6 km/h 3 mph /  4.8 km/h 62 % 0 in /  0.0 mm
21:17 81.7 °F /  27.6 °C 58.3 °F /  14.6 °C 30 in /  1015.8 hPa South 9.2 mph /  14.8 km/h 9.2 mph /  14.8 km/h 45 % 0 in /  0.0 mm
21:22 81.3 °F /  27.4 °C 57.9 °F /  14.4 °C 30 in /  1015.8 hPa SSE 3.5 mph /  5.6 km/h 3.5 mph /  5.6 km/h 45 % 0 in /  0.0 mm
21:25 74.7 °F /  23.7 °C 61.2 °F /  16.2 °C 30.1 in /  1017.8 hPa WSW 1 mph /  1.6 km/h 2 mph /  3.2 km/h 63 % 0 in /  0.0 mm
21:27 81.1 °F /  27.3 °C 57.7 °F /  14.3 °C 30 in /  1015.8 hPa SSW 2.6 mph /  4.2 km/h 2.6 mph /  4.2 km/h 45 % 0 in /  0.0 mm
21:32 81 °F /  27.2 °C 57.6 °F /  14.2 °C 30 in /  1015.8 hPa WSW 3.5 mph /  5.6 km/h 3.5 mph /  5.6 km/h 45 % 0 in /  0.0 mm
21:35 74.5 °F /  23.6 °C 61.2 °F /  16.2 °C 30.1 in /  1017.8 hPa SW 1 mph /  1.6 km/h 3 mph /  4.8 km/h 63 % 0 in /  0.0 mm
21:37 80.6 °F /  27.0 °C 57.9 °F /  14.4 °C 30 in /  1015.8 hPa SSW 4.6 mph /  7.4 km/h 4.6 mph /  7.4 km/h 46 % 0 in /  0.0 mm
21:42 80.4 °F /  26.9 °C 58.3 °F /  14.6 °C 30 in /  1015.8 hPa SW 3.5 mph /  5.6 km/h 3.5 mph /  5.6 km/h 47 % 0 in /  0.0 mm
21:45 74.3 °F /  23.5 °C 61 °F /  16.1 °C 30.1 in /  1017.8 hPa WSW 1 mph /  1.6 km/h 3 mph /  4.8 km/h 63 % 0 in /  0.0 mm
21:47 80.2 °F /  26.8 °C 58.3 °F /  14.6 °C 30 in /  1015.8 hPa SSE 3.5 mph /  5.6 km/h 3.5 mph /  5.6 km/h 47 % 0 in /  0.0 mm
21:52 80.1 °F /  26.7 °C 58.6 °F /  14.8 °C 30 in /  1015.8 hPa SW 3.5 mph /  5.6 km/h 3.5 mph /  5.6 km/h 48 % 0 in /  0.0 mm
21:55 74.1 °F /  23.4 °C 60.6 °F /  15.9 °C 30 in /  1016.8 hPa WSW 1 mph /  1.6 km/h 2 mph /  3.2 km/h 63 % 0 in /  0.0 mm
21:57 79.9 °F /  26.6 °C 59 °F /  15.0 °C 30 in /  1015.8 hPa SW 1.6 mph /  2.6 km/h 1.6 mph /  2.6 km/h 49 % 0 in /  0.0 mm
22:02 79.5 °F /  26.4 °C 58.6 °F /  14.8 °C 30 in /  1015.8 hPa WSW 3.5 mph /  5.6 km/h 3.5 mph /  5.6 km/h 49 % 0 in /  0.0 mm
22:05 73.9 °F /  23.3 °C 60.4 °F /  15.8 °C 30 in /  1016.8 hPa WSW 2 mph /  3.2 km/h 2 mph /  3.2 km/h 63 % 0 in /  0.0 mm
22:07 79.3 °F /  26.3 °C 58.5 °F /  14.7 °C 30 in /  1015.8 hPa SSW 3.5 mph /  5.6 km/h 3.5 mph /  5.6 km/h 49 % 0 in /  0.0 mm
22:12 79.2 °F /  26.2 °C 58.8 °F /  14.9 °C 30 in /  1015.8 hPa Calm     50 % 0 in /  0.0 mm
22:15 73.4 °F /  23.0 °C 60.4 °F /  15.8 °C 30 in /  1016.8 hPa Calm   2 mph /  3.2 km/h 64 % 0 in /  0.0 mm
22:17 79 °F /  26.1 °C 58.8 °F /  14.9 °C 30 in /  1015.8 hPa SSW 4.6 mph /  7.4 km/h 4.6 mph /  7.4 km/h 50 % 0 in /  0.0 mm
22:22 79 °F /  26.1 °C 59.4 °F /  15.2 °C 30 in /  1015.8 hPa SW 2.4 mph /  3.9 km/h 2.4 mph /  3.9 km/h 51 % 0 in /  0.0 mm
22:25 73.2 °F /  22.9 °C 60.3 °F /  15.7 °C 30 in /  1016.8 hPa SW 1 mph /  1.6 km/h 1 mph /  1.6 km/h 64 % 0 in /  0.0 mm
22:27 78.8 °F /  26.0 °C 59.2 °F /  15.1 °C 30 in /  1015.8 hPa SW 1.2 mph /  1.9 km/h   51 % 0 in /  0.0 mm
22:32 78.8 °F /  26.0 °C 59.2 °F /  15.1 °C 30 in /  1016.8 hPa WSW 3.5 mph /  5.6 km/h 3.5 mph /  5.6 km/h 51 % 0 in /  0.0 mm
22:35 73.2 °F /  22.9 °C 60.3 °F /  15.7 °C 30 in /  1016.8 hPa WSW 1 mph /  1.6 km/h 2 mph /  3.2 km/h 64 % 0 in /  0.0 mm
22:37 78.6 °F /  25.9 °C 59 °F /  15.0 °C 30 in /  1016.8 hPa SSW 2.3 mph /  3.7 km/h 2.3 mph /  3.7 km/h 51 % 0 in /  0.0 mm
22:42 78.4 °F /  25.8 °C 59.4 °F /  15.2 °C 30 in /  1016.8 hPa SW 2.3 mph /  3.7 km/h 2.3 mph /  3.7 km/h 52 % 0 in /  0.0 mm
22:45 78.4 °F /  25.8 °C 59.4 °F /  15.2 °C 30 in /  1016.8 hPa Calm     52 % 0 in /  0.0 mm
22:48 78.4 °F /  25.8 °C 59.4 °F /  15.2 °C 30 in /  1016.8 hPa SW 2.3 mph /  3.7 km/h 2.3 mph /  3.7 km/h 52 % 0 in /  0.0 mm
22:50 78.3 °F /  25.7 °C 59.2 °F /  15.1 °C 30 in /  1016.8 hPa SW 4.6 mph /  7.4 km/h 4.6 mph /  7.4 km/h 52 % 0 in /  0.0 mm
22:55 78.1 °F /  25.6 °C 59 °F /  15.0 °C 30 in /  1016.8 hPa SW 2.4 mph /  3.9 km/h 2.4 mph /  3.9 km/h 52 % 0 in /  0.0 mm
23:00 78.1 °F /  25.6 °C 59.5 °F /  15.3 °C 30.1 in /  1017.8 hPa SW 1.2 mph /  1.9 km/h   53 % 0 in /  0.0 mm
23:05 77.9 °F /  25.5 °C 59.4 °F /  15.2 °C 30.1 in /  1017.8 hPa WSW 1.2 mph /  1.9 km/h   53 % 0 in /  0.0 mm
23:10 77.9 °F /  25.5 °C 59.9 °F /  15.5 °C 30.1 in /  1017.8 hPa SSE 2.6 mph /  4.2 km/h   54 % 0 in /  0.0 mm
23:15 77.7 °F /  25.4 °C 59.7 °F /  15.4 °C 30.1 in /  1017.8 hPa South 1.2 mph /  1.9 km/h   54 % 0 in /  0.0 mm
23:20 77.7 °F /  25.4 °C 59.7 °F /  15.4 °C 30.1 in /  1017.8 hPa West 0.9 mph /  1.4 km/h   54 % 0 in /  0.0 mm
23:25 77.7 °F /  25.4 °C 59.7 °F /  15.4 °C 30.1 in /  1017.8 hPa WSW 1.4 mph /  2.3 km/h 1.4 mph /  2.3 km/h 54 % 0 in /  0.0 mm
23:30 77.5 °F /  25.3 °C 59.5 °F /  15.3 °C 30.1 in /  1017.8 hPa SW 2.4 mph /  3.9 km/h 2.4 mph /  3.9 km/h 54 % 0 in /  0.0 mm
23:35 77.5 °F /  25.3 °C 59.5 °F /  15.3 °C 30.1 in /  1017.8 hPa SW 2.4 mph /  3.9 km/h 2.4 mph /  3.9 km/h 54 % 0 in /  0.0 mm
23:40 77.4 °F /  25.2 °C 59.9 °F /  15.5 °C 30.1 in /  1017.8 hPa SW 2.4 mph /  3.9 km/h   55 % 0 in /  0.0 mm
23:45 77.4 °F /  25.2 °C 59.9 °F /  15.5 °C 30.1 in /  1017.8 hPa WSW 1.2 mph /  1.9 km/h 1.2 mph /  1.9 km/h 55 % 0 in /  0.0 mm
23:50 77.2 °F /  25.1 °C 59.2 °F /  15.1 °C 30.1 in /  1017.8 hPa SW 3.5 mph /  5.6 km/h 3.5 mph /  5.6 km/h 54 % 0 in /  0.0 mm
23:55 77 °F /  25.0 °C 59.5 °F /  15.3 °C 30.1 in /  1017.8 hPa SW 2.3 mph /  3.7 km/h 2.3 mph /  3.7 km/h 55 % 0 in /  0.0 mm
Meteo Sesrovires
Elogis d' Weather Underground - 3.5 mb

Guio original per  Jim McMurry - jmcmurry@mwt.net Adaptat per a la plantilla per  Wim van der Kuil - Leuven-Template.eu

Trobareu la nostra informacio del temps tambe a:

Weather Underground

AWEKAS